This is the latest recevied weather packets stored in our database for station/object YO4TNV-15. If no packets are shown the sender has not sent any weather packets the latest 1 day(s).
| Time | Temp. | Humidity | Pressure | Rain* | Wind** | Luminosity | Snow |
|---|---|---|---|---|---|---|---|
| 1778071936 | 26.67° C | 24% | 999 hPa | - | - | - | - |
| 1778071036 | 26.67° C | 25% | 999.1 hPa | - | - | - | - |
| 1778070136 | 26.67° C | 24% | 999.2 hPa | - | - | - | - |
| 1778069244 | 26.67° C | 24% | 999.4 hPa | - | - | - | - |
| 1778068346 | 26.67° C | 24% | 999.6 hPa | - | - | - | - |
| 1778067435 | 26.11° C | 23% | 999.7 hPa | - | - | - | - |
| 1778062942 | 26.11° C | 25% | 1000.1 hPa | - | - | - | - |
| 1778062934 | 26.11° C | 25% | 1000.1 hPa | - | - | - | - |
| 1778062042 | 26.11° C | 27% | 1000.1 hPa | - | - | - | - |
| 1778062034 | 26.11° C | 27% | 1000.1 hPa | - | - | - | - |
| 1778060242 | 25.56° C | 26% | 1000.3 hPa | - | - | - | - |
| 1778059342 | 25.56° C | 29% | 1000.4 hPa | - | - | - | - |
| 1778059333 | 25.56° C | 29% | 1000.4 hPa | - | - | - | - |
| 1778058433 | 25° C | 29% | 1000.4 hPa | - | - | - | - |
| 1778057542 | 24.44° C | 30% | 1000.4 hPa | - | - | - | - |
| 1778057533 | 24.44° C | 30% | 1000.4 hPa | - | - | - | - |
| 1778055742 | 24.44° C | 29% | 1000.5 hPa | - | - | - | - |
| 1778054842 | 24.44° C | 30% | 1000.5 hPa | - | - | - | - |
| 1778054832 | 24.44° C | 30% | 1000.5 hPa | - | - | - | - |
| 1778053942 | 23.89° C | 30% | 1000.5 hPa | - | - | - | - |
| 1778053932 | 23.89° C | 30% | 1000.5 hPa | - | - | - | - |
| 1778053042 | 25.56° C | 29% | 1000.5 hPa | - | - | - | - |
| 1778053032 | 25.56° C | 29% | 1000.5 hPa | - | - | - | - |
| 1778052142 | 22.22° C | 33% | 1000.6 hPa | - | - | - | - |
| 1778052132 | 22.22° C | 33% | 1000.6 hPa | - | - | - | - |
* Rain since midnight (hover to see other rain measurements)
** Current wind speed in m/s (hover to see current wind gust speed)